sensor_id;sensor_type;location;lat;lon;timestamp;P1;durP1;ratioP1;P2;durP2;ratioP2
4555;SDS011;2290;48.674;9.018;2024-03-07T00:02:20;28.00;;;12.73;;
4555;SDS011;2290;48.674;9.018;2024-03-07T00:04:45;29.00;;;14.27;;
4555;SDS011;2290;48.674;9.018;2024-03-07T00:07:11;23.77;;;13.60;;
4555;SDS011;2290;48.674;9.018;2024-03-07T00:09:37;24.83;;;13.27;;
4555;SDS011;2290;48.674;9.018;2024-03-07T00:12:03;25.40;;;13.40;;
4555;SDS011;2290;48.674;9.018;2024-03-07T00:14:29;32.83;;;14.57;;
4555;SDS011;2290;48.674;9.018;2024-03-07T00:16:56;28.10;;;13.90;;
4555;SDS011;2290;48.674;9.018;2024-03-07T00:19:24;31.50;;;14.00;;
4555;SDS011;2290;48.674;9.018;2024-03-07T00:21:55;30.60;;;14.27;;
4555;SDS011;2290;48.674;9.018;2024-03-07T00:24:21;33.20;;;14.63;;
4555;SDS011;2290;48.674;9.018;2024-03-07T00:26:47;26.87;;;13.97;;
4555;SDS011;2290;48.674;9.018;2024-03-07T00:29:16;25.80;;;13.00;;
4555;SDS011;2290;48.674;9.018;2024-03-07T00:31:43;23.77;;;13.53;;
4555;SDS011;2290;48.674;9.018;2024-03-07T00:34:11;29.80;;;14.53;;
4555;SDS011;2290;48.674;9.018;2024-03-07T00:36:39;26.77;;;12.97;;
4555;SDS011;2290;48.674;9.018;2024-03-07T00:39:05;30.37;;;13.90;;
4555;SDS011;2290;48.674;9.018;2024-03-07T00:41:33;28.13;;;13.43;;
4555;SDS011;2290;48.674;9.018;2024-03-07T00:43:59;30.27;;;14.40;;
4555;SDS011;2290;48.674;9.018;2024-03-07T00:46:24;28.90;;;15.00;;
4555;SDS011;2290;48.674;9.018;2024-03-07T00:48:50;26.60;;;13.50;;
4555;SDS011;2290;48.674;9.018;2024-03-07T00:51:15;27.67;;;14.57;;
4555;SDS011;2290;48.674;9.018;2024-03-07T00:53:41;27.00;;;13.33;;
4555;SDS011;2290;48.674;9.018;2024-03-07T00:56:06;25.17;;;13.30;;
4555;SDS011;2290;48.674;9.018;2024-03-07T00:58:32;31.17;;;14.03;;
4555;SDS011;2290;48.674;9.018;2024-03-07T01:00:57;28.50;;;14.40;;
4555;SDS011;2290;48.674;9.018;2024-03-07T01:03:23;29.43;;;15.07;;
4555;SDS011;2290;48.674;9.018;2024-03-07T01:05:49;35.63;;;14.93;;
4555;SDS011;2290;48.674;9.018;2024-03-07T01:08:16;30.77;;;14.90;;
4555;SDS011;2290;48.674;9.018;2024-03-07T01:10:41;32.37;;;15.03;;
4555;SDS011;2290;48.674;9.018;2024-03-07T01:13:07;33.67;;;15.70;;
4555;SDS011;2290;48.674;9.018;2024-03-07T01:15:40;29.50;;;14.17;;
4555;SDS011;2290;48.674;9.018;2024-03-07T01:18:06;32.37;;;15.90;;
4555;SDS011;2290;48.674;9.018;2024-03-07T01:20:32;35.03;;;16.50;;
4555;SDS011;2290;48.674;9.018;2024-03-07T01:22:57;36.40;;;15.60;;
4555;SDS011;2290;48.674;9.018;2024-03-07T01:25:23;34.83;;;16.37;;
4555;SDS011;2290;48.674;9.018;2024-03-07T01:27:48;33.47;;;16.20;;
4555;SDS011;2290;48.674;9.018;2024-03-07T01:30:16;36.33;;;16.97;;
4555;SDS011;2290;48.674;9.018;2024-03-07T01:32:41;36.50;;;16.00;;
4555;SDS011;2290;48.674;9.018;2024-03-07T01:35:08;35.77;;;16.70;;
4555;SDS011;2290;48.674;9.018;2024-03-07T01:37:33;27.80;;;14.87;;
4555;SDS011;2290;48.674;9.018;2024-03-07T01:40:01;31.00;;;15.17;;
4555;SDS011;2290;48.674;9.018;2024-03-07T01:42:28;34.27;;;16.20;;
4555;SDS011;2290;48.674;9.018;2024-03-07T01:44:53;31.37;;;15.20;;
4555;SDS011;2290;48.674;9.018;2024-03-07T01:47:19;34.20;;;15.20;;
4555;SDS011;2290;48.674;9.018;2024-03-07T01:49:45;30.80;;;15.67;;
4555;SDS011;2290;48.674;9.018;2024-03-07T01:52:10;32.17;;;14.73;;
4555;SDS011;2290;48.674;9.018;2024-03-07T01:54:37;35.67;;;16.23;;
4555;SDS011;2290;48.674;9.018;2024-03-07T01:57:03;27.80;;;14.37;;
4555;SDS011;2290;48.674;9.018;2024-03-07T01:59:30;34.73;;;16.37;;
4555;SDS011;2290;48.674;9.018;2024-03-07T02:01:57;34.40;;;16.83;;
4555;SDS011;2290;48.674;9.018;2024-03-07T02:04:23;37.33;;;17.20;;
4555;SDS011;2290;48.674;9.018;2024-03-07T02:06:49;35.30;;;16.87;;
4555;SDS011;2290;48.674;9.018;2024-03-07T02:09:15;37.90;;;17.00;;
4555;SDS011;2290;48.674;9.018;2024-03-07T02:11:42;34.57;;;15.93;;
4555;SDS011;2290;48.674;9.018;2024-03-07T02:14:07;33.27;;;16.13;;
4555;SDS011;2290;48.674;9.018;2024-03-07T02:16:33;36.03;;;17.50;;
4555;SDS011;2290;48.674;9.018;2024-03-07T02:18:59;32.67;;;16.13;;
4555;SDS011;2290;48.674;9.018;2024-03-07T02:21:25;30.83;;;15.73;;
4555;SDS011;2290;48.674;9.018;2024-03-07T02:23:50;33.20;;;15.77;;
4555;SDS011;2290;48.674;9.018;2024-03-07T02:26:16;35.30;;;15.90;;
4555;SDS011;2290;48.674;9.018;2024-03-07T02:28:42;35.37;;;16.70;;
4555;SDS011;2290;48.674;9.018;2024-03-07T02:31:07;34.30;;;15.27;;
4555;SDS011;2290;48.674;9.018;2024-03-07T02:33:33;34.33;;;15.80;;
4555;SDS011;2290;48.674;9.018;2024-03-07T02:35:58;33.17;;;14.87;;
4555;SDS011;2290;48.674;9.018;2024-03-07T02:38:24;32.80;;;15.60;;
4555;SDS011;2290;48.674;9.018;2024-03-07T02:40:49;34.40;;;15.47;;
4555;SDS011;2290;48.674;9.018;2024-03-07T02:43:15;31.73;;;15.83;;
4555;SDS011;2290;48.674;9.018;2024-03-07T02:45:41;37.33;;;16.00;;
4555;SDS011;2290;48.674;9.018;2024-03-07T02:48:06;35.80;;;15.60;;
4555;SDS011;2290;48.674;9.018;2024-03-07T02:50:34;34.03;;;16.03;;
4555;SDS011;2290;48.674;9.018;2024-03-07T02:53:02;41.93;;;16.47;;
4555;SDS011;2290;48.674;9.018;2024-03-07T02:55:28;30.93;;;16.17;;
4555;SDS011;2290;48.674;9.018;2024-03-07T02:57:54;29.67;;;15.37;;
4555;SDS011;2290;48.674;9.018;2024-03-07T03:00:22;31.97;;;15.57;;
4555;SDS011;2290;48.674;9.018;2024-03-07T03:02:51;35.13;;;15.33;;
4555;SDS011;2290;48.674;9.018;2024-03-07T03:05:17;34.03;;;15.33;;
4555;SDS011;2290;48.674;9.018;2024-03-07T03:07:43;34.50;;;14.50;;
4555;SDS011;2290;48.674;9.018;2024-03-07T03:10:17;33.27;;;15.10;;
4555;SDS011;2290;48.674;9.018;2024-03-07T03:12:51;39.60;;;14.70;;
4555;SDS011;2290;48.674;9.018;2024-03-07T03:15:18;29.80;;;14.73;;
4555;SDS011;2290;48.674;9.018;2024-03-07T03:17:45;32.80;;;15.80;;
4555;SDS011;2290;48.674;9.018;2024-03-07T03:20:11;26.20;;;13.90;;
4555;SDS011;2290;48.674;9.018;2024-03-07T03:22:48;32.20;;;15.00;;
4555;SDS011;2290;48.674;9.018;2024-03-07T03:25:15;33.33;;;13.90;;
4555;SDS011;2290;48.674;9.018;2024-03-07T03:27:40;32.70;;;14.97;;
4555;SDS011;2290;48.674;9.018;2024-03-07T03:30:06;32.83;;;14.70;;
4555;SDS011;2290;48.674;9.018;2024-03-07T03:32:32;27.40;;;14.00;;
4555;SDS011;2290;48.674;9.018;2024-03-07T03:34:57;33.23;;;14.90;;
4555;SDS011;2290;48.674;9.018;2024-03-07T03:37:23;26.63;;;14.07;;
4555;SDS011;2290;48.674;9.018;2024-03-07T03:39:49;33.43;;;15.00;;
4555;SDS011;2290;48.674;9.018;2024-03-07T03:42:15;34.27;;;14.37;;
4555;SDS011;2290;48.674;9.018;2024-03-07T03:44:41;28.47;;;14.57;;
4555;SDS011;2290;48.674;9.018;2024-03-07T03:47:06;34.10;;;14.97;;
4555;SDS011;2290;48.674;9.018;2024-03-07T03:49:32;33.13;;;15.00;;
4555;SDS011;2290;48.674;9.018;2024-03-07T03:51:57;28.80;;;13.30;;
4555;SDS011;2290;48.674;9.018;2024-03-07T03:54:23;31.30;;;15.53;;
4555;SDS011;2290;48.674;9.018;2024-03-07T03:56:49;31.87;;;13.90;;
4555;SDS011;2290;48.674;9.018;2024-03-07T03:59:15;29.87;;;13.03;;
4555;SDS011;2290;48.674;9.018;2024-03-07T04:01:40;31.57;;;14.80;;
4555;SDS011;2290;48.674;9.018;2024-03-07T04:04:06;30.83;;;15.13;;
4555;SDS011;2290;48.674;9.018;2024-03-07T04:06:32;30.67;;;14.00;;
4555;SDS011;2290;48.674;9.018;2024-03-07T04:08:57;32.27;;;14.53;;
4555;SDS011;2290;48.674;9.018;2024-03-07T04:11:24;35.57;;;15.50;;
4555;SDS011;2290;48.674;9.018;2024-03-07T04:13:49;27.70;;;13.57;;
4555;SDS011;2290;48.674;9.018;2024-03-07T04:16:15;29.20;;;13.93;;
4555;SDS011;2290;48.674;9.018;2024-03-07T04:18:41;30.10;;;14.83;;
4555;SDS011;2290;48.674;9.018;2024-03-07T04:21:07;34.30;;;14.57;;
4555;SDS011;2290;48.674;9.018;2024-03-07T04:23:34;29.70;;;13.97;;
4555;SDS011;2290;48.674;9.018;2024-03-07T04:26:00;29.13;;;15.13;;
4555;SDS011;2290;48.674;9.018;2024-03-07T04:28:25;29.60;;;13.13;;
4555;SDS011;2290;48.674;9.018;2024-03-07T04:30:52;30.27;;;14.37;;
4555;SDS011;2290;48.674;9.018;2024-03-07T04:33:18;32.67;;;14.30;;
4555;SDS011;2290;48.674;9.018;2024-03-07T04:35:45;34.07;;;14.10;;
4555;SDS011;2290;48.674;9.018;2024-03-07T04:38:11;29.50;;;14.70;;
4555;SDS011;2290;48.674;9.018;2024-03-07T04:40:40;38.57;;;15.30;;
4555;SDS011;2290;48.674;9.018;2024-03-07T04:43:08;32.20;;;14.80;;
4555;SDS011;2290;48.674;9.018;2024-03-07T04:45:35;30.77;;;14.30;;
4555;SDS011;2290;48.674;9.018;2024-03-07T04:48:01;33.53;;;15.10;;
4555;SDS011;2290;48.674;9.018;2024-03-07T04:50:27;28.10;;;14.27;;
4555;SDS011;2290;48.674;9.018;2024-03-07T04:52:52;26.60;;;12.60;;
4555;SDS011;2290;48.674;9.018;2024-03-07T04:55:18;30.47;;;15.27;;
4555;SDS011;2290;48.674;9.018;2024-03-07T04:57:44;31.33;;;15.23;;
4555;SDS011;2290;48.674;9.018;2024-03-07T05:00:10;34.37;;;15.57;;
4555;SDS011;2290;48.674;9.018;2024-03-07T05:02:42;32.80;;;15.10;;
4555;SDS011;2290;48.674;9.018;2024-03-07T05:05:08;31.17;;;15.03;;
4555;SDS011;2290;48.674;9.018;2024-03-07T05:07:34;33.30;;;16.20;;
4555;SDS011;2290;48.674;9.018;2024-03-07T05:10:06;34.37;;;15.30;;
4555;SDS011;2290;48.674;9.018;2024-03-07T05:12:33;38.20;;;16.67;;
4555;SDS011;2290;48.674;9.018;2024-03-07T05:14:58;35.30;;;15.90;;
4555;SDS011;2290;48.674;9.018;2024-03-07T05:17:24;31.97;;;15.30;;
4555;SDS011;2290;48.674;9.018;2024-03-07T05:19:50;34.73;;;16.27;;
4555;SDS011;2290;48.674;9.018;2024-03-07T05:22:16;36.40;;;16.20;;
4555;SDS011;2290;48.674;9.018;2024-03-07T05:24:43;35.60;;;17.07;;
4555;SDS011;2290;48.674;9.018;2024-03-07T05:27:08;40.07;;;16.10;;
4555;SDS011;2290;48.674;9.018;2024-03-07T05:29:36;31.70;;;15.37;;
4555;SDS011;2290;48.674;9.018;2024-03-07T05:32:21;37.07;;;16.30;;
4555;SDS011;2290;48.674;9.018;2024-03-07T05:34:48;30.40;;;14.50;;
4555;SDS011;2290;48.674;9.018;2024-03-07T05:37:14;36.37;;;15.60;;
4555;SDS011;2290;48.674;9.018;2024-03-07T05:39:39;34.83;;;16.10;;
4555;SDS011;2290;48.674;9.018;2024-03-07T05:42:05;35.07;;;14.87;;
4555;SDS011;2290;48.674;9.018;2024-03-07T05:44:32;37.30;;;16.30;;
4555;SDS011;2290;48.674;9.018;2024-03-07T05:46:58;34.07;;;15.80;;
4555;SDS011;2290;48.674;9.018;2024-03-07T05:49:23;35.70;;;16.20;;
4555;SDS011;2290;48.674;9.018;2024-03-07T05:51:49;35.40;;;16.60;;
4555;SDS011;2290;48.674;9.018;2024-03-07T05:54:14;33.27;;;16.37;;
4555;SDS011;2290;48.674;9.018;2024-03-07T05:56:40;29.97;;;14.97;;
4555;SDS011;2290;48.674;9.018;2024-03-07T05:59:07;33.50;;;15.53;;
4555;SDS011;2290;48.674;9.018;2024-03-07T06:01:34;33.90;;;15.10;;
4555;SDS011;2290;48.674;9.018;2024-03-07T06:04:00;37.03;;;16.37;;
4555;SDS011;2290;48.674;9.018;2024-03-07T06:06:27;38.73;;;16.80;;
4555;SDS011;2290;48.674;9.018;2024-03-07T06:08:53;29.23;;;14.70;;
4555;SDS011;2290;48.674;9.018;2024-03-07T06:11:19;31.47;;;14.57;;
4555;SDS011;2290;48.674;9.018;2024-03-07T06:13:46;36.40;;;16.70;;
4555;SDS011;2290;48.674;9.018;2024-03-07T06:16:13;36.70;;;15.40;;
4555;SDS011;2290;48.674;9.018;2024-03-07T06:18:39;33.00;;;14.70;;
4555;SDS011;2290;48.674;9.018;2024-03-07T06:21:05;30.67;;;14.63;;
4555;SDS011;2290;48.674;9.018;2024-03-07T06:23:31;34.57;;;14.97;;
4555;SDS011;2290;48.674;9.018;2024-03-07T06:25:57;37.00;;;16.47;;
4555;SDS011;2290;48.674;9.018;2024-03-07T06:28:24;36.17;;;16.27;;
4555;SDS011;2290;48.674;9.018;2024-03-07T06:30:50;36.50;;;16.07;;
4555;SDS011;2290;48.674;9.018;2024-03-07T06:33:16;32.37;;;14.40;;
4555;SDS011;2290;48.674;9.018;2024-03-07T06:35:42;33.30;;;15.90;;
4555;SDS011;2290;48.674;9.018;2024-03-07T06:38:08;34.40;;;15.43;;
4555;SDS011;2290;48.674;9.018;2024-03-07T06:40:35;32.97;;;15.50;;
4555;SDS011;2290;48.674;9.018;2024-03-07T06:43:01;33.07;;;16.13;;
4555;SDS011;2290;48.674;9.018;2024-03-07T06:45:31;38.60;;;15.90;;
4555;SDS011;2290;48.674;9.018;2024-03-07T06:47:57;40.20;;;16.90;;
4555;SDS011;2290;48.674;9.018;2024-03-07T06:50:23;35.93;;;15.80;;
4555;SDS011;2290;48.674;9.018;2024-03-07T06:52:49;32.57;;;16.03;;
4555;SDS011;2290;48.674;9.018;2024-03-07T06:55:16;35.90;;;15.80;;
4555;SDS011;2290;48.674;9.018;2024-03-07T06:57:43;40.30;;;15.60;;
4555;SDS011;2290;48.674;9.018;2024-03-07T07:00:12;40.43;;;15.97;;
4555;SDS011;2290;48.674;9.018;2024-03-07T07:02:40;31.30;;;15.60;;
4555;SDS011;2290;48.674;9.018;2024-03-07T07:05:06;37.40;;;16.60;;
4555;SDS011;2290;48.674;9.018;2024-03-07T07:07:36;41.13;;;16.03;;
4555;SDS011;2290;48.674;9.018;2024-03-07T07:10:03;39.60;;;17.80;;
4555;SDS011;2290;48.674;9.018;2024-03-07T07:12:29;33.70;;;15.80;;
4555;SDS011;2290;48.674;9.018;2024-03-07T07:14:55;29.33;;;15.20;;
4555;SDS011;2290;48.674;9.018;2024-03-07T07:17:21;33.50;;;16.30;;
4555;SDS011;2290;48.674;9.018;2024-03-07T07:19:48;33.60;;;16.20;;
4555;SDS011;2290;48.674;9.018;2024-03-07T07:22:14;39.50;;;16.87;;
4555;SDS011;2290;48.674;9.018;2024-03-07T07:24:39;33.60;;;16.33;;
4555;SDS011;2290;48.674;9.018;2024-03-07T07:27:05;29.00;;;14.37;;
4555;SDS011;2290;48.674;9.018;2024-03-07T07:29:32;35.27;;;16.10;;
4555;SDS011;2290;48.674;9.018;2024-03-07T07:31:57;31.13;;;16.10;;
4555;SDS011;2290;48.674;9.018;2024-03-07T07:34:23;34.77;;;17.00;;
4555;SDS011;2290;48.674;9.018;2024-03-07T07:36:49;33.27;;;15.73;;
4555;SDS011;2290;48.674;9.018;2024-03-07T07:39:14;31.00;;;14.73;;
4555;SDS011;2290;48.674;9.018;2024-03-07T07:41:41;32.63;;;14.33;;
4555;SDS011;2290;48.674;9.018;2024-03-07T07:44:07;29.10;;;14.77;;
4555;SDS011;2290;48.674;9.018;2024-03-07T07:46:34;38.93;;;17.77;;
4555;SDS011;2290;48.674;9.018;2024-03-07T07:49:00;30.90;;;15.20;;
4555;SDS011;2290;48.674;9.018;2024-03-07T07:51:27;30.80;;;15.50;;
4555;SDS011;2290;48.674;9.018;2024-03-07T07:53:53;36.43;;;15.23;;
4555;SDS011;2290;48.674;9.018;2024-03-07T07:56:21;31.63;;;14.20;;
4555;SDS011;2290;48.674;9.018;2024-03-07T07:58:47;32.27;;;14.10;;
4555;SDS011;2290;48.674;9.018;2024-03-07T08:01:14;32.87;;;15.23;;
4555;SDS011;2290;48.674;9.018;2024-03-07T08:03:41;28.57;;;15.03;;
4555;SDS011;2290;48.674;9.018;2024-03-07T08:06:09;31.50;;;13.67;;
4555;SDS011;2290;48.674;9.018;2024-03-07T08:08:34;32.03;;;14.50;;
4555;SDS011;2290;48.674;9.018;2024-03-07T08:11:00;30.30;;;14.33;;
4555;SDS011;2290;48.674;9.018;2024-03-07T08:13:26;30.53;;;14.53;;
4555;SDS011;2290;48.674;9.018;2024-03-07T08:15:52;31.80;;;13.60;;
4555;SDS011;2290;48.674;9.018;2024-03-07T08:18:18;30.37;;;15.50;;
4555;SDS011;2290;48.674;9.018;2024-03-07T08:20:45;30.40;;;14.87;;
4555;SDS011;2290;48.674;9.018;2024-03-07T08:23:11;34.50;;;15.40;;
4555;SDS011;2290;48.674;9.018;2024-03-07T08:25:37;34.77;;;14.90;;
4555;SDS011;2290;48.674;9.018;2024-03-07T08:28:07;31.47;;;14.90;;
4555;SDS011;2290;48.674;9.018;2024-03-07T08:30:33;30.70;;;15.23;;
4555;SDS011;2290;48.674;9.018;2024-03-07T08:33:00;34.27;;;15.83;;
4555;SDS011;2290;48.674;9.018;2024-03-07T08:35:29;30.50;;;13.97;;
4555;SDS011;2290;48.674;9.018;2024-03-07T08:37:55;33.93;;;15.17;;
4555;SDS011;2290;48.674;9.018;2024-03-07T08:40:23;33.30;;;15.10;;
4555;SDS011;2290;48.674;9.018;2024-03-07T08:42:50;32.50;;;15.50;;
4555;SDS011;2290;48.674;9.018;2024-03-07T08:45:17;32.50;;;14.97;;
4555;SDS011;2290;48.674;9.018;2024-03-07T08:47:46;37.80;;;15.77;;
4555;SDS011;2290;48.674;9.018;2024-03-07T08:50:13;36.80;;;16.30;;
4555;SDS011;2290;48.674;9.018;2024-03-07T08:52:39;28.07;;;14.30;;
4555;SDS011;2290;48.674;9.018;2024-03-07T08:55:06;31.20;;;15.33;;
4555;SDS011;2290;48.674;9.018;2024-03-07T08:57:35;35.10;;;16.53;;
4555;SDS011;2290;48.674;9.018;2024-03-07T09:00:02;33.00;;;15.27;;
4555;SDS011;2290;48.674;9.018;2024-03-07T09:02:33;35.30;;;16.10;;
4555;SDS011;2290;48.674;9.018;2024-03-07T09:05:00;33.37;;;15.80;;
4555;SDS011;2290;48.674;9.018;2024-03-07T09:07:26;33.37;;;15.00;;
4555;SDS011;2290;48.674;9.018;2024-03-07T09:09:51;33.37;;;15.50;;
4555;SDS011;2290;48.674;9.018;2024-03-07T09:12:17;35.63;;;15.20;;
4555;SDS011;2290;48.674;9.018;2024-03-07T09:14:45;39.20;;;16.50;;
4555;SDS011;2290;48.674;9.018;2024-03-07T09:17:10;36.57;;;16.50;;
4555;SDS011;2290;48.674;9.018;2024-03-07T09:19:37;37.83;;;17.70;;
4555;SDS011;2290;48.674;9.018;2024-03-07T09:22:02;35.70;;;16.10;;
4555;SDS011;2290;48.674;9.018;2024-03-07T09:24:30;31.33;;;15.20;;
4555;SDS011;2290;48.674;9.018;2024-03-07T09:26:56;33.80;;;16.07;;
4555;SDS011;2290;48.674;9.018;2024-03-07T09:29:22;35.87;;;16.70;;
4555;SDS011;2290;48.674;9.018;2024-03-07T09:31:50;34.47;;;16.37;;
4555;SDS011;2290;48.674;9.018;2024-03-07T09:34:17;33.13;;;15.90;;
4555;SDS011;2290;48.674;9.018;2024-03-07T09:36:43;37.23;;;15.23;;
4555;SDS011;2290;48.674;9.018;2024-03-07T09:39:09;36.17;;;15.97;;
4555;SDS011;2290;48.674;9.018;2024-03-07T09:41:37;37.73;;;17.20;;
4555;SDS011;2290;48.674;9.018;2024-03-07T09:44:04;39.80;;;17.83;;
4555;SDS011;2290;48.674;9.018;2024-03-07T09:46:30;34.70;;;16.87;;
4555;SDS011;2290;48.674;9.018;2024-03-07T09:48:57;38.97;;;17.00;;
4555;SDS011;2290;48.674;9.018;2024-03-07T09:51:23;36.67;;;16.53;;
4555;SDS011;2290;48.674;9.018;2024-03-07T09:53:50;35.03;;;15.80;;
4555;SDS011;2290;48.674;9.018;2024-03-07T09:56:19;42.00;;;16.30;;
4555;SDS011;2290;48.674;9.018;2024-03-07T09:58:48;37.30;;;17.20;;
4555;SDS011;2290;48.674;9.018;2024-03-07T10:01:15;33.63;;;16.13;;
4555;SDS011;2290;48.674;9.018;2024-03-07T10:03:52;39.80;;;15.90;;
4555;SDS011;2290;48.674;9.018;2024-03-07T10:06:39;32.23;;;14.73;;
4555;SDS011;2290;48.674;9.018;2024-03-07T10:09:11;40.20;;;16.97;;
4555;SDS011;2290;48.674;9.018;2024-03-07T10:11:38;33.57;;;16.67;;
4555;SDS011;2290;48.674;9.018;2024-03-07T10:14:07;35.87;;;15.70;;
4555;SDS011;2290;48.674;9.018;2024-03-07T10:16:34;36.40;;;15.00;;
4555;SDS011;2290;48.674;9.018;2024-03-07T10:19:03;37.83;;;15.93;;
4555;SDS011;2290;48.674;9.018;2024-03-07T10:21:29;37.23;;;15.90;;
4555;SDS011;2290;48.674;9.018;2024-03-07T10:24:07;39.20;;;17.10;;
4555;SDS011;2290;48.674;9.018;2024-03-07T10:26:34;34.90;;;15.23;;
4555;SDS011;2290;48.674;9.018;2024-03-07T10:29:00;34.03;;;14.43;;
4555;SDS011;2290;48.674;9.018;2024-03-07T10:31:33;39.07;;;16.77;;
4555;SDS011;2290;48.674;9.018;2024-03-07T10:34:00;35.03;;;14.90;;
4555;SDS011;2290;48.674;9.018;2024-03-07T10:36:26;30.30;;;15.07;;
4555;SDS011;2290;48.674;9.018;2024-03-07T10:38:55;30.23;;;15.13;;
4555;SDS011;2290;48.674;9.018;2024-03-07T10:41:22;34.77;;;15.07;;
4555;SDS011;2290;48.674;9.018;2024-03-07T10:43:53;34.17;;;15.10;;
4555;SDS011;2290;48.674;9.018;2024-03-07T10:46:21;35.67;;;14.63;;
4555;SDS011;2290;48.674;9.018;2024-03-07T10:48:50;39.83;;;15.87;;
4555;SDS011;2290;48.674;9.018;2024-03-07T10:51:22;34.00;;;14.53;;
4555;SDS011;2290;48.674;9.018;2024-03-07T10:59:18;31.70;;;14.63;;
4555;SDS011;2290;48.674;9.018;2024-03-07T11:01:48;35.00;;;16.23;;
4555;SDS011;2290;48.674;9.018;2024-03-07T11:04:22;35.47;;;14.37;;
4555;SDS011;2290;48.674;9.018;2024-03-07T11:06:49;36.03;;;15.10;;
4555;SDS011;2290;48.674;9.018;2024-03-07T11:09:15;29.13;;;13.57;;
4555;SDS011;2290;48.674;9.018;2024-03-07T11:11:48;29.87;;;13.33;;
4555;SDS011;2290;48.674;9.018;2024-03-07T11:14:14;27.67;;;12.57;;
4555;SDS011;2290;48.674;9.018;2024-03-07T11:16:41;26.30;;;14.00;;
4555;SDS011;2290;48.674;9.018;2024-03-07T11:22:07;23.83;;;11.33;;
4555;SDS011;2290;48.674;9.018;2024-03-07T11:24:40;25.57;;;11.90;;
4555;SDS011;2290;48.674;9.018;2024-03-07T11:27:08;28.03;;;12.17;;
4555;SDS011;2290;48.674;9.018;2024-03-07T11:32:07;23.63;;;11.53;;
4555;SDS011;2290;48.674;9.018;2024-03-07T11:34:38;25.67;;;11.80;;
4555;SDS011;2290;48.674;9.018;2024-03-07T11:37:08;25.53;;;11.93;;
4555;SDS011;2290;48.674;9.018;2024-03-07T11:42:28;24.50;;;11.47;;
4555;SDS011;2290;48.674;9.018;2024-03-07T11:44:56;22.60;;;11.23;;
4555;SDS011;2290;48.674;9.018;2024-03-07T11:47:24;21.67;;;11.27;;
4555;SDS011;2290;48.674;9.018;2024-03-07T11:49:50;23.57;;;11.67;;
4555;SDS011;2290;48.674;9.018;2024-03-07T11:52:17;25.07;;;11.43;;
4555;SDS011;2290;48.674;9.018;2024-03-07T11:54:45;26.63;;;11.87;;
4555;SDS011;2290;48.674;9.018;2024-03-07T11:57:11;26.00;;;12.00;;
4555;SDS011;2290;48.674;9.018;2024-03-07T11:59:41;26.33;;;12.63;;
4555;SDS011;2290;48.674;9.018;2024-03-07T12:02:14;26.83;;;13.50;;
4555;SDS011;2290;48.674;9.018;2024-03-07T12:04:46;28.03;;;13.20;;
4555;SDS011;2290;48.674;9.018;2024-03-07T12:07:18;21.70;;;11.17;;
4555;SDS011;2290;48.674;9.018;2024-03-07T12:09:44;23.53;;;11.90;;
4555;SDS011;2290;48.674;9.018;2024-03-07T12:12:15;30.47;;;12.60;;
4555;SDS011;2290;48.674;9.018;2024-03-07T12:14:42;25.00;;;12.37;;
4555;SDS011;2290;48.674;9.018;2024-03-07T12:17:08;29.90;;;12.10;;
4555;SDS011;2290;48.674;9.018;2024-03-07T12:19:34;29.97;;;12.80;;
4555;SDS011;2290;48.674;9.018;2024-03-07T12:22:01;29.10;;;13.57;;
4555;SDS011;2290;48.674;9.018;2024-03-07T12:24:27;31.10;;;13.13;;
4555;SDS011;2290;48.674;9.018;2024-03-07T12:27:04;28.67;;;13.43;;
4555;SDS011;2290;48.674;9.018;2024-03-07T12:29:41;28.77;;;13.57;;
4555;SDS011;2290;48.674;9.018;2024-03-07T12:32:08;29.50;;;14.77;;
4555;SDS011;2290;48.674;9.018;2024-03-07T12:34:38;31.83;;;13.80;;
4555;SDS011;2290;48.674;9.018;2024-03-07T12:37:11;28.63;;;13.83;;
4555;SDS011;2290;48.674;9.018;2024-03-07T12:39:44;30.10;;;13.90;;
4555;SDS011;2290;48.674;9.018;2024-03-07T12:42:15;29.53;;;12.63;;
4555;SDS011;2290;48.674;9.018;2024-03-07T12:44:42;29.03;;;12.47;;
4555;SDS011;2290;48.674;9.018;2024-03-07T12:47:12;27.47;;;12.20;;
4555;SDS011;2290;48.674;9.018;2024-03-07T12:49:39;30.37;;;13.77;;
4555;SDS011;2290;48.674;9.018;2024-03-07T12:52:07;27.70;;;14.13;;
4555;SDS011;2290;48.674;9.018;2024-03-07T12:54:34;25.10;;;12.20;;
4555;SDS011;2290;48.674;9.018;2024-03-07T12:57:05;27.93;;;13.60;;
4555;SDS011;2290;48.674;9.018;2024-03-07T12:59:35;31.10;;;13.60;;
4555;SDS011;2290;48.674;9.018;2024-03-07T13:02:03;23.90;;;12.70;;
4555;SDS011;2290;48.674;9.018;2024-03-07T13:04:31;30.37;;;14.77;;
4555;SDS011;2290;48.674;9.018;2024-03-07T13:06:57;27.50;;;12.87;;
4555;SDS011;2290;48.674;9.018;2024-03-07T13:09:24;29.80;;;13.80;;
4555;SDS011;2290;48.674;9.018;2024-03-07T13:11:55;33.00;;;14.10;;
4555;SDS011;2290;48.674;9.018;2024-03-07T13:14:22;36.10;;;15.20;;
4555;SDS011;2290;48.674;9.018;2024-03-07T13:16:48;33.83;;;13.80;;
4555;SDS011;2290;48.674;9.018;2024-03-07T13:19:15;28.67;;;14.60;;
4555;SDS011;2290;48.674;9.018;2024-03-07T13:21:45;33.90;;;15.07;;
4555;SDS011;2290;48.674;9.018;2024-03-07T13:24:11;31.17;;;13.90;;
4555;SDS011;2290;48.674;9.018;2024-03-07T13:26:37;31.70;;;14.90;;
4555;SDS011;2290;48.674;9.018;2024-03-07T13:29:03;31.80;;;16.43;;
4555;SDS011;2290;48.674;9.018;2024-03-07T13:31:29;34.60;;;15.97;;
4555;SDS011;2290;48.674;9.018;2024-03-07T13:33:55;34.37;;;14.27;;
4555;SDS011;2290;48.674;9.018;2024-03-07T13:36:21;32.50;;;16.97;;
4555;SDS011;2290;48.674;9.018;2024-03-07T13:38:50;35.40;;;15.73;;
4555;SDS011;2290;48.674;9.018;2024-03-07T13:41:20;33.87;;;16.10;;
4555;SDS011;2290;48.674;9.018;2024-03-07T13:43:47;36.63;;;16.27;;
4555;SDS011;2290;48.674;9.018;2024-03-07T13:46:13;36.03;;;16.30;;
4555;SDS011;2290;48.674;9.018;2024-03-07T13:48:40;35.17;;;16.30;;
4555;SDS011;2290;48.674;9.018;2024-03-07T13:51:09;33.13;;;15.50;;
4555;SDS011;2290;48.674;9.018;2024-03-07T13:53:35;32.90;;;15.10;;
4555;SDS011;2290;48.674;9.018;2024-03-07T14:01:43;29.20;;;14.80;;
4555;SDS011;2290;48.674;9.018;2024-03-07T14:04:43;29.10;;;16.03;;
4555;SDS011;2290;48.674;9.018;2024-03-07T14:15:56;33.50;;;15.00;;
4555;SDS011;2290;48.674;9.018;2024-03-07T14:26:45;30.50;;;13.80;;
4555;SDS011;2290;48.674;9.018;2024-03-07T14:30:07;30.03;;;14.27;;
4555;SDS011;2290;48.674;9.018;2024-03-07T14:32:48;31.37;;;16.20;;
4555;SDS011;2290;48.674;9.018;2024-03-07T14:35:23;34.53;;;14.57;;
4555;SDS011;2290;48.674;9.018;2024-03-07T14:41:06;29.27;;;14.60;;
4555;SDS011;2290;48.674;9.018;2024-03-07T14:43:33;29.37;;;14.43;;
4555;SDS011;2290;48.674;9.018;2024-03-07T14:45:59;29.67;;;15.40;;
4555;SDS011;2290;48.674;9.018;2024-03-07T14:48:25;29.43;;;14.60;;
4555;SDS011;2290;48.674;9.018;2024-03-07T14:50:52;29.33;;;14.70;;
4555;SDS011;2290;48.674;9.018;2024-03-07T14:53:19;33.07;;;15.70;;
4555;SDS011;2290;48.674;9.018;2024-03-07T14:55:46;24.73;;;13.30;;
4555;SDS011;2290;48.674;9.018;2024-03-07T14:58:12;27.00;;;14.27;;
4555;SDS011;2290;48.674;9.018;2024-03-07T15:00:39;28.57;;;14.40;;
4555;SDS011;2290;48.674;9.018;2024-03-07T15:03:09;27.53;;;14.23;;
4555;SDS011;2290;48.674;9.018;2024-03-07T15:05:38;33.07;;;15.60;;
4555;SDS011;2290;48.674;9.018;2024-03-07T15:08:07;37.27;;;13.90;;
4555;SDS011;2290;48.674;9.018;2024-03-07T15:10:35;30.27;;;15.70;;
4555;SDS011;2290;48.674;9.018;2024-03-07T15:13:03;27.30;;;14.07;;
4555;SDS011;2290;48.674;9.018;2024-03-07T15:15:29;32.07;;;16.27;;
4555;SDS011;2290;48.674;9.018;2024-03-07T15:17:57;37.60;;;15.47;;
4555;SDS011;2290;48.674;9.018;2024-03-07T15:20:24;28.57;;;14.60;;
4555;SDS011;2290;48.674;9.018;2024-03-07T15:22:55;28.87;;;15.47;;
4555;SDS011;2290;48.674;9.018;2024-03-07T15:25:22;23.60;;;13.07;;
4555;SDS011;2290;48.674;9.018;2024-03-07T15:27:49;33.07;;;14.27;;
4555;SDS011;2290;48.674;9.018;2024-03-07T15:30:15;32.70;;;16.63;;